Philadelphia, Pennsylvania
Traffic Map
Current Weather Conditions
Philadelphia, Pennsylvania
Overcast Light Snow
Overcast
-5°
Feels Like: -11°
Wind Chill: -11° Ceiling: 2600
Heat Index: -5° Visibility: 2mi
Dew Point: -9° Wind: 10mph
Humidity: 74% Direction: 20° (NNE)
Pressure: 30.34in Gusts: 0mph
Raw Report DataKPHL 271154Z 02009KT 2SM -SN BKN026 OVC033 M05/M09 A3034 RMK AO2 SLP274 P0000 60000 T10501089 11028 21050 51036 $
Traffic Incident Summary
Active as of:
Severity:
Category:
InformationThere was an issue retrieving the traffic information for this location. Please try a different location or try again shortly.
Advertisements
Track Severe Weather on mobile